Mc Daniels, Kentucky
Current Conditions -  °F | °C
As of 1:58 PM on Saturday 20 Dec 2014 (Local Time) from KFTK Reporting Station
Overcast Overcast  
Wind Chill: 38°   Ceiling: 6500
Heat Index: 38°   Visibility: 10mi
Dew Point: 26°   Wind: 3mph
Humidity: 63%   Direction: NA
Pressure: 30.22"   Gusts: NA
Location:  37.6134°N, 86.4706°W
Report Text: KFTK 201958Z AUTO VRB03KT 10SM OVC065 03/M03 A3022 RMK AO2 SLP243 T00311034
Loading
Personal Weather Stations






























Interactive Weather Map New forecast layout! Learn more

10-Day Weather Forecast

Advertisements
Track Severe Weather on mobile